Aérodrome :
LOGIN :

S'inscrire | Disclaimer

   EN    FR    IT 

 










Légende :    VFR   VFR Marginal   IFR   IFR Intensif   IFR Très Intensif
Visi : 
Plafond : 
>= 8 km
>= 3000ft
5 à 8 km
1000 à 3000 ft
1500m à 5 km
500 à 1000 ft
800 à 1500m
200 à 500 ft
< 800m
< 200 ft
Symboles :   Orages  Brouillard  Fortes neiges  Fortes précipitations  Vent > 20 kt
SIGMETs :   Divers  Orages  Givrage  Turbulence  Onde Orograph.  Cendres Volcan.






- Altitude de l'aérodrome : 37 ft


EHVL - Vlieland Heliport

DERNIER METAR :
  • 250712Z AUTO 19017KT 2300 BR SCT001 BKN003 OVC004 05/04 Q1019 RED

METARs EXPIRÉS :
  • 250655Z AUTO 19015KT 2300 BR BKN003 OVC006 05/04 Q1019 YLO
  • 250625Z AUTO 20013KT 2100 BR BKN003 OVC004 05/05 Q1019 YLO
  • 250556Z AUTO 20012KT 2300 BR FEW001 BKN005 OVC007 06/05 Q1019 YLO
  • 250545Z AUTO 21012KT 2300 BR FEW001 SCT005 BKN006 06/05 Q1019 YLO
  • 250525Z AUTO 21014KT 2500 BR SCT001 BKN005 BKN015 06/05 Q1019 RED
  • 250455Z AUTO 19012KT 2200 BR BKN006 OVC007 05/05 Q1019 YLO
  • 250425Z AUTO 19014KT 2300 BR FEW001 BKN006 BKN007 05/05 Q1019 YLO

Prévision TAF périmée.



MET'MAP, la Météo Aéronautique d'un coup d'oeil ! - Copyright ORBIFLY Décembre 2007 - Disclaimer

ORBIFLY MET'MAP TEAM :

Programmation & Développement : Alexandra Zaïnal
Sur une idée originale de : Baudouin d'Aumeries
Assistance à la programmation : Marc-Olivier Méhu
Soutien technique & logistique : Manuel Goepfert

Contact : metmap@orbifly.com




SOURCES & CREDITS :

   NOAA